NCAR-RAP Real-Time Weather Data

Output produced by METARs form (10 April 2020  06:09 UTC)
found at http://weather.rap.ucar.edu/surface/
 
KOMA 100552Z 01006KT 10SM CLR M02/M07 A3023 RMK AO2 SLP242 T10171072 10050 21028 401111028 51006
KOMA 100452Z 01007KT 10SM CLR M02/M07 A3022 RMK AO2 SLP241 T10171072
KOMA 100352Z 32010KT 10SM CLR 01/M08 A3022 RMK AO2 SLP240 T00061083
KOMA 100252Z 34016G24KT 10SM FEW060 02/M08 A3021 RMK AO2 SLP235 T00171083 51019
KOMA 100152Z 34019G24KT 10SM FEW060 03/M08 A3019 RMK AO2 PK WND 35026/0116 SLP228 T00281083
KOMA 100052Z 34019G28KT 10SM FEW060 03/M09 A3017 RMK AO2 PK WND 35033/0027 SLP224 T00331094
KOMA 092352Z 34021G31KT 10SM FEW065 06/M08 A3015 RMK AO2 PK WND 33035/2315 SLP215 T00561083 10106 20056 52020
KOMA 092252Z 32021G35KT 10SM FEW065 07/M10 A3013 RMK AO2 PK WND 32037/2200 SLP208 T00721100
KOMA 092152Z 33027G36KT 10SM FEW065 08/M08 A3011 RMK AO2 PK WND 34041/2105 SLP201 T00831078
KOMA 092052Z 33030G40KT 7SM FEW070 FEW250 09/M08 A3009 RMK AO2 PK WND 32040/1956 SLP193 T00891083 50005
KOMA 091952Z 33025G38KT 6SM BLDU FEW070 SCT250 09/M09 A3009 RMK AO2 PK WND 34042/1916 SLP195 T00941089
KOMA 091852Z 32028G40KT 6SM BLDU FEW070 SCT250 10/M07 A3008 RMK AO2 PK WND 32043/1753 SLP190 T01001072
KOMA 091752Z 32025G41KT 5SM BLDU FEW070 SCT250 11/M08 A3007 RMK AO2 PK WND 32041/1710 SLP187 T01061078 10111 20033 53005
KOMA 091652Z 32026G41KT 6SM R14R/5500VP6000FT BLDU FEW070 FEW130 11/M08 A3006 RMK AO2 PK WND 32042/1626 SLP181 T01061078
KOMA 091552Z 30020G38KT 7SM SCT065 SCT250 10/M07 A3005 RMK AO2 PK WND 32038/1544 SLP178 T01001067
KOMA 091452Z 29018G24KT 10SM SCT200 SCT250 09/M06 A3006 RMK AO2 SLP182 T00891061 50004
KOMA 091352Z 27017G22KT 10SM SCT200 BKN250 07/M06 A3006 RMK AO2 SLP182 T00721056
KOMA 091252Z 27011KT 10SM SCT200 SCT250 05/M06 A3006 RMK AO2 SLP181 T00501056
KOMA 091152Z 30011KT 10SM SCT200 04/M05 A3005 RMK AO2 SLP177 T00391050 10050 20022 50000
KOMA 091052Z 29011KT 10SM FEW200 04/M06 A3006 RMK AO2 SLP180 T00441056
KOMA 090952Z 27010KT 10SM CLR 04/M04 A3006 RMK AO2 SLP180 T00391039
KOMA 090852Z 00000KT 10SM CLR 04/M02 A3004 RMK AO2 SLP176 T00391017 50000
KOMA 090752Z 36004KT 10SM SCT095 03/M02 A3005 RMK AO2 SLP176 T00281022